sensor_id;sensor_type;location;lat;lon;timestamp;temperature;humidity
64226;DHT22;50545;56.064;26.178;2022-11-15T00:01:15;1.90;99.90
64226;DHT22;50545;56.064;26.178;2022-11-15T00:03:44;1.90;99.90
64226;DHT22;50545;56.064;26.178;2022-11-15T00:06:12;1.90;99.90
64226;DHT22;50545;56.064;26.178;2022-11-15T00:08:39;1.90;99.90
64226;DHT22;50545;56.064;26.178;2022-11-15T00:11:08;1.90;99.90
64226;DHT22;50545;56.064;26.178;2022-11-15T00:13:36;1.90;99.90
64226;DHT22;50545;56.064;26.178;2022-11-15T00:16:04;1.90;99.90
64226;DHT22;50545;56.064;26.178;2022-11-15T00:18:32;1.90;99.90
64226;DHT22;50545;56.064;26.178;2022-11-15T00:21:07;2.00;99.90
64226;DHT22;50545;56.064;26.178;2022-11-15T00:23:34;2.00;99.90
64226;DHT22;50545;56.064;26.178;2022-11-15T00:26:02;2.00;99.90
64226;DHT22;50545;56.064;26.178;2022-11-15T00:28:29;2.00;99.90
64226;DHT22;50545;56.064;26.178;2022-11-15T00:31:01;2.00;99.90
64226;DHT22;50545;56.064;26.178;2022-11-15T00:33:29;2.00;99.90
64226;DHT22;50545;56.064;26.178;2022-11-15T00:36:04;2.00;99.90
64226;DHT22;50545;56.064;26.178;2022-11-15T00:38:33;2.00;99.90
64226;DHT22;50545;56.064;26.178;2022-11-15T00:41:01;2.00;99.90
64226;DHT22;50545;56.064;26.178;2022-11-15T00:43:34;2.00;99.90
64226;DHT22;50545;56.064;26.178;2022-11-15T00:46:02;2.00;99.90
64226;DHT22;50545;56.064;26.178;2022-11-15T00:48:29;2.00;99.90
64226;DHT22;50545;56.064;26.178;2022-11-15T00:50:57;2.10;99.90
64226;DHT22;50545;56.064;26.178;2022-11-15T00:53:24;2.00;99.90
64226;DHT22;50545;56.064;26.178;2022-11-15T00:55:52;2.10;99.90
64226;DHT22;50545;56.064;26.178;2022-11-15T00:58:19;2.10;99.90
64226;DHT22;50545;56.064;26.178;2022-11-15T01:00:46;2.00;99.90
64226;DHT22;50545;56.064;26.178;2022-11-15T01:03:14;2.00;99.90
64226;DHT22;50545;56.064;26.178;2022-11-15T01:05:41;2.00;99.90
64226;DHT22;50545;56.064;26.178;2022-11-15T01:08:15;2.10;99.90
64226;DHT22;50545;56.064;26.178;2022-11-15T01:10:43;2.10;99.90
64226;DHT22;50545;56.064;26.178;2022-11-15T01:13:10;2.10;99.90
64226;DHT22;50545;56.064;26.178;2022-11-15T01:15:41;2.10;99.90
64226;DHT22;50545;56.064;26.178;2022-11-15T01:18:08;2.10;99.90
64226;DHT22;50545;56.064;26.178;2022-11-15T01:20:42;2.10;99.90
64226;DHT22;50545;56.064;26.178;2022-11-15T01:23:10;2.10;99.90
64226;DHT22;50545;56.064;26.178;2022-11-15T01:25:37;2.10;99.90
64226;DHT22;50545;56.064;26.178;2022-11-15T01:28:04;2.10;99.90
64226;DHT22;50545;56.064;26.178;2022-11-15T01:30:31;2.10;99.90
64226;DHT22;50545;56.064;26.178;2022-11-15T01:32:59;2.10;99.90
64226;DHT22;50545;56.064;26.178;2022-11-15T01:35:26;2.10;99.90
64226;DHT22;50545;56.064;26.178;2022-11-15T01:37:53;2.10;99.90
64226;DHT22;50545;56.064;26.178;2022-11-15T01:40:20;2.10;99.90
64226;DHT22;50545;56.064;26.178;2022-11-15T01:42:47;2.10;99.90
64226;DHT22;50545;56.064;26.178;2022-11-15T01:45:15;2.10;99.90
64226;DHT22;50545;56.064;26.178;2022-11-15T01:47:50;2.10;99.90
64226;DHT22;50545;56.064;26.178;2022-11-15T01:50:29;2.10;99.90
64226;DHT22;50545;56.064;26.178;2022-11-15T01:52:57;2.10;99.90
64226;DHT22;50545;56.064;26.178;2022-11-15T01:55:26;2.10;99.90
64226;DHT22;50545;56.064;26.178;2022-11-15T01:57:58;2.10;99.90
64226;DHT22;50545;56.064;26.178;2022-11-15T02:00:26;2.20;99.90
64226;DHT22;50545;56.064;26.178;2022-11-15T02:02:53;2.10;99.90
64226;DHT22;50545;56.064;26.178;2022-11-15T02:05:20;2.20;99.90
64226;DHT22;50545;56.064;26.178;2022-11-15T02:07:48;2.20;99.90
64226;DHT22;50545;56.064;26.178;2022-11-15T02:10:22;2.20;99.90
64226;DHT22;50545;56.064;26.178;2022-11-15T02:12:50;2.20;99.90
64226;DHT22;50545;56.064;26.178;2022-11-15T02:15:19;2.20;99.90
64226;DHT22;50545;56.064;26.178;2022-11-15T02:18:07;2.20;99.90
64226;DHT22;50545;56.064;26.178;2022-11-15T02:20:54;2.30;99.90
64226;DHT22;50545;56.064;26.178;2022-11-15T02:29:28;2.30;99.90
64226;DHT22;50545;56.064;26.178;2022-11-15T02:32:30;2.30;99.90
64226;DHT22;50545;56.064;26.178;2022-11-15T02:41:17;2.40;99.90
64226;DHT22;50545;56.064;26.178;2022-11-15T02:43:54;2.30;99.90
64226;DHT22;50545;56.064;26.178;2022-11-15T02:46:35;2.40;99.90
64226;DHT22;50545;56.064;26.178;2022-11-15T02:49:24;2.40;99.90
64226;DHT22;50545;56.064;26.178;2022-11-15T02:51:52;2.40;99.90
64226;DHT22;50545;56.064;26.178;2022-11-15T02:54:25;2.40;99.90
64226;DHT22;50545;56.064;26.178;2022-11-15T02:56:55;2.40;99.90
64226;DHT22;50545;56.064;26.178;2022-11-15T03:05:23;2.50;99.90
64226;DHT22;50545;56.064;26.178;2022-11-15T03:08:17;2.40;99.90
64226;DHT22;50545;56.064;26.178;2022-11-15T03:11:11;2.50;99.90
64226;DHT22;50545;56.064;26.178;2022-11-15T03:13:57;2.40;99.90
64226;DHT22;50545;56.064;26.178;2022-11-15T03:16:58;2.50;99.90
64226;DHT22;50545;56.064;26.178;2022-11-15T03:22:11;2.50;99.90
64226;DHT22;50545;56.064;26.178;2022-11-15T03:24:39;2.40;99.90
64226;DHT22;50545;56.064;26.178;2022-11-15T03:27:08;2.40;99.90
64226;DHT22;50545;56.064;26.178;2022-11-15T03:29:41;2.50;99.90
64226;DHT22;50545;56.064;26.178;2022-11-15T03:32:16;2.50;99.90
64226;DHT22;50545;56.064;26.178;2022-11-15T03:35:24;2.50;99.90
64226;DHT22;50545;56.064;26.178;2022-11-15T03:38:36;2.50;99.90
64226;DHT22;50545;56.064;26.178;2022-11-15T03:40:47;2.50;99.90
64226;DHT22;50545;56.064;26.178;2022-11-15T03:43:39;2.50;99.90
64226;DHT22;50545;56.064;26.178;2022-11-15T03:46:19;2.50;99.90
64226;DHT22;50545;56.064;26.178;2022-11-15T03:48:53;2.50;99.90
64226;DHT22;50545;56.064;26.178;2022-11-15T03:51:21;2.50;99.90
64226;DHT22;50545;56.064;26.178;2022-11-15T03:53:49;2.50;99.90
64226;DHT22;50545;56.064;26.178;2022-11-15T03:56:17;2.50;99.90
64226;DHT22;50545;56.064;26.178;2022-11-15T03:58:44;2.60;99.90
64226;DHT22;50545;56.064;26.178;2022-11-15T04:01:11;2.60;99.90
64226;DHT22;50545;56.064;26.178;2022-11-15T04:03:38;2.60;99.90
64226;DHT22;50545;56.064;26.178;2022-11-15T04:06:06;2.60;99.90
64226;DHT22;50545;56.064;26.178;2022-11-15T04:08:33;2.60;99.90
64226;DHT22;50545;56.064;26.178;2022-11-15T04:11:00;2.60;99.90
64226;DHT22;50545;56.064;26.178;2022-11-15T04:13:28;2.70;99.90
64226;DHT22;50545;56.064;26.178;2022-11-15T04:15:56;2.70;99.90
64226;DHT22;50545;56.064;26.178;2022-11-15T04:18:23;2.70;99.90
64226;DHT22;50545;56.064;26.178;2022-11-15T04:20:51;2.70;99.90
64226;DHT22;50545;56.064;26.178;2022-11-15T04:23:36;2.70;99.90
64226;DHT22;50545;56.064;26.178;2022-11-15T04:26:22;2.70;99.90
64226;DHT22;50545;56.064;26.178;2022-11-15T04:28:50;2.70;99.90
64226;DHT22;50545;56.064;26.178;2022-11-15T04:31:36;2.70;99.90
64226;DHT22;50545;56.064;26.178;2022-11-15T04:34:03;2.70;99.90
64226;DHT22;50545;56.064;26.178;2022-11-15T04:36:30;2.80;99.90
64226;DHT22;50545;56.064;26.178;2022-11-15T04:39:16;2.80;99.90
64226;DHT22;50545;56.064;26.178;2022-11-15T04:41:43;2.70;99.90
64226;DHT22;50545;56.064;26.178;2022-11-15T04:44:10;2.80;99.90
64226;DHT22;50545;56.064;26.178;2022-11-15T04:46:37;2.70;99.90
64226;DHT22;50545;56.064;26.178;2022-11-15T04:49:05;2.80;99.90
64226;DHT22;50545;56.064;26.178;2022-11-15T04:51:32;2.80;99.90
64226;DHT22;50545;56.064;26.178;2022-11-15T04:53:59;2.80;99.90
64226;DHT22;50545;56.064;26.178;2022-11-15T04:56:26;2.80;99.90
64226;DHT22;50545;56.064;26.178;2022-11-15T04:58:53;2.80;99.90
64226;DHT22;50545;56.064;26.178;2022-11-15T05:01:21;2.80;99.90
64226;DHT22;50545;56.064;26.178;2022-11-15T05:03:48;2.80;99.90
64226;DHT22;50545;56.064;26.178;2022-11-15T05:06:34;2.80;99.90
64226;DHT22;50545;56.064;26.178;2022-11-15T05:09:01;2.80;99.90
64226;DHT22;50545;56.064;26.178;2022-11-15T05:11:28;2.80;99.90
64226;DHT22;50545;56.064;26.178;2022-11-15T05:13:56;2.80;99.90
64226;DHT22;50545;56.064;26.178;2022-11-15T05:16:23;2.80;99.90
64226;DHT22;50545;56.064;26.178;2022-11-15T05:18:52;2.80;99.90
64226;DHT22;50545;56.064;26.178;2022-11-15T05:21:19;2.80;99.90
64226;DHT22;50545;56.064;26.178;2022-11-15T05:23:47;2.80;99.90
64226;DHT22;50545;56.064;26.178;2022-11-15T05:26:16;2.80;99.90
64226;DHT22;50545;56.064;26.178;2022-11-15T05:28:44;2.80;99.90
64226;DHT22;50545;56.064;26.178;2022-11-15T05:31:14;2.80;99.90
64226;DHT22;50545;56.064;26.178;2022-11-15T05:33:42;2.80;99.90
64226;DHT22;50545;56.064;26.178;2022-11-15T05:36:31;2.90;99.90
64226;DHT22;50545;56.064;26.178;2022-11-15T05:39:01;2.80;99.90
64226;DHT22;50545;56.064;26.178;2022-11-15T05:41:34;2.90;99.90
64226;DHT22;50545;56.064;26.178;2022-11-15T05:44:05;2.90;99.90
64226;DHT22;50545;56.064;26.178;2022-11-15T05:46:35;2.90;99.90
64226;DHT22;50545;56.064;26.178;2022-11-15T05:49:06;2.90;99.90
64226;DHT22;50545;56.064;26.178;2022-11-15T05:51:34;2.90;99.90
64226;DHT22;50545;56.064;26.178;2022-11-15T05:54:01;2.90;99.90
64226;DHT22;50545;56.064;26.178;2022-11-15T05:56:29;2.80;99.90
64226;DHT22;50545;56.064;26.178;2022-11-15T05:58:58;2.90;99.90
64226;DHT22;50545;56.064;26.178;2022-11-15T06:01:26;2.90;99.90
64226;DHT22;50545;56.064;26.178;2022-11-15T06:03:54;2.80;99.90
64226;DHT22;50545;56.064;26.178;2022-11-15T06:06:22;2.90;99.90
64226;DHT22;50545;56.064;26.178;2022-11-15T06:08:49;2.90;99.90
64226;DHT22;50545;56.064;26.178;2022-11-15T06:11:16;2.90;99.90
64226;DHT22;50545;56.064;26.178;2022-11-15T06:13:43;2.90;99.90
64226;DHT22;50545;56.064;26.178;2022-11-15T06:16:11;2.90;99.90
64226;DHT22;50545;56.064;26.178;2022-11-15T06:18:38;2.90;99.90
64226;DHT22;50545;56.064;26.178;2022-11-15T06:21:06;2.90;99.90
64226;DHT22;50545;56.064;26.178;2022-11-15T06:23:34;2.90;99.90
64226;DHT22;50545;56.064;26.178;2022-11-15T06:26:03;2.90;99.90
64226;DHT22;50545;56.064;26.178;2022-11-15T06:28:31;2.90;99.90
64226;DHT22;50545;56.064;26.178;2022-11-15T06:31:06;2.90;99.90
64226;DHT22;50545;56.064;26.178;2022-11-15T06:33:34;2.90;99.90
64226;DHT22;50545;56.064;26.178;2022-11-15T06:36:03;2.90;99.90
64226;DHT22;50545;56.064;26.178;2022-11-15T06:38:31;2.90;99.90
64226;DHT22;50545;56.064;26.178;2022-11-15T06:41:06;2.90;99.90
64226;DHT22;50545;56.064;26.178;2022-11-15T06:43:34;2.90;99.90
64226;DHT22;50545;56.064;26.178;2022-11-15T06:46:03;3.00;99.90
64226;DHT22;50545;56.064;26.178;2022-11-15T06:48:31;3.00;99.90
64226;DHT22;50545;56.064;26.178;2022-11-15T06:51:00;3.00;99.90
64226;DHT22;50545;56.064;26.178;2022-11-15T06:53:29;3.00;99.90
64226;DHT22;50545;56.064;26.178;2022-11-15T06:56:00;3.00;99.90
64226;DHT22;50545;56.064;26.178;2022-11-15T06:58:28;3.00;99.90
64226;DHT22;50545;56.064;26.178;2022-11-15T07:01:03;3.00;99.90
64226;DHT22;50545;56.064;26.178;2022-11-15T07:03:31;3.10;99.90
64226;DHT22;50545;56.064;26.178;2022-11-15T07:05:59;3.00;99.90
64226;DHT22;50545;56.064;26.178;2022-11-15T07:08:33;3.00;99.90
64226;DHT22;50545;56.064;26.178;2022-11-15T07:11:06;3.10;99.90
64226;DHT22;50545;56.064;26.178;2022-11-15T07:13:35;3.10;99.90
64226;DHT22;50545;56.064;26.178;2022-11-15T07:16:09;3.10;99.90
64226;DHT22;50545;56.064;26.178;2022-11-15T07:18:38;3.10;99.90
64226;DHT22;50545;56.064;26.178;2022-11-15T07:21:07;3.10;99.90
64226;DHT22;50545;56.064;26.178;2022-11-15T07:23:38;3.10;99.90
64226;DHT22;50545;56.064;26.178;2022-11-15T07:26:06;3.10;99.90
64226;DHT22;50545;56.064;26.178;2022-11-15T07:28:34;3.20;99.90
64226;DHT22;50545;56.064;26.178;2022-11-15T07:31:05;3.10;99.90
64226;DHT22;50545;56.064;26.178;2022-11-15T07:33:32;3.20;99.90
64226;DHT22;50545;56.064;26.178;2022-11-15T07:36:01;3.10;99.90
64226;DHT22;50545;56.064;26.178;2022-11-15T07:38:29;3.10;99.90
64226;DHT22;50545;56.064;26.178;2022-11-15T07:40:58;3.10;99.90
64226;DHT22;50545;56.064;26.178;2022-11-15T07:43:26;3.10;99.90
64226;DHT22;50545;56.064;26.178;2022-11-15T07:45:57;3.10;99.90
64226;DHT22;50545;56.064;26.178;2022-11-15T07:48:25;3.20;99.90
64226;DHT22;50545;56.064;26.178;2022-11-15T07:51:14;3.10;99.90
64226;DHT22;50545;56.064;26.178;2022-11-15T07:53:44;3.10;99.90
64226;DHT22;50545;56.064;26.178;2022-11-15T07:56:12;3.20;99.90
64226;DHT22;50545;56.064;26.178;2022-11-15T07:58:40;3.20;99.90
64226;DHT22;50545;56.064;26.178;2022-11-15T08:01:09;3.10;99.90
64226;DHT22;50545;56.064;26.178;2022-11-15T08:03:37;3.10;99.90
64226;DHT22;50545;56.064;26.178;2022-11-15T08:06:05;3.20;99.90
64226;DHT22;50545;56.064;26.178;2022-11-15T08:08:32;3.10;99.90
64226;DHT22;50545;56.064;26.178;2022-11-15T08:10:59;3.20;99.90
64226;DHT22;50545;56.064;26.178;2022-11-15T08:13:27;3.20;99.90
64226;DHT22;50545;56.064;26.178;2022-11-15T08:16:01;3.20;99.90
64226;DHT22;50545;56.064;26.178;2022-11-15T08:18:29;3.20;99.90
64226;DHT22;50545;56.064;26.178;2022-11-15T08:21:00;3.20;99.90
64226;DHT22;50545;56.064;26.178;2022-11-15T08:23:28;3.20;99.90
64226;DHT22;50545;56.064;26.178;2022-11-15T08:26:02;3.20;99.90
64226;DHT22;50545;56.064;26.178;2022-11-15T08:28:31;3.20;99.90
64226;DHT22;50545;56.064;26.178;2022-11-15T08:30:59;3.20;99.90
64226;DHT22;50545;56.064;26.178;2022-11-15T08:33:26;3.30;99.90
64226;DHT22;50545;56.064;26.178;2022-11-15T08:35:59;3.20;99.90
64226;DHT22;50545;56.064;26.178;2022-11-15T08:38:27;3.30;99.90
64226;DHT22;50545;56.064;26.178;2022-11-15T08:41:04;3.30;99.90
64226;DHT22;50545;56.064;26.178;2022-11-15T08:43:33;3.30;99.90
64226;DHT22;50545;56.064;26.178;2022-11-15T08:46:00;3.30;99.90
64226;DHT22;50545;56.064;26.178;2022-11-15T08:48:27;3.30;99.90
64226;DHT22;50545;56.064;26.178;2022-11-15T08:50:56;3.30;99.90
64226;DHT22;50545;56.064;26.178;2022-11-15T08:53:23;3.30;99.90
64226;DHT22;50545;56.064;26.178;2022-11-15T08:55:50;3.40;99.90
64226;DHT22;50545;56.064;26.178;2022-11-15T08:58:18;3.40;99.90
64226;DHT22;50545;56.064;26.178;2022-11-15T09:00:45;3.40;99.90
64226;DHT22;50545;56.064;26.178;2022-11-15T09:03:12;3.40;99.90
64226;DHT22;50545;56.064;26.178;2022-11-15T09:05:39;3.50;99.90
64226;DHT22;50545;56.064;26.178;2022-11-15T09:08:07;3.40;99.90
64226;DHT22;50545;56.064;26.178;2022-11-15T09:10:54;3.40;99.90
64226;DHT22;50545;56.064;26.178;2022-11-15T09:13:22;3.50;99.90
64226;DHT22;50545;56.064;26.178;2022-11-15T09:15:49;3.50;99.90
64226;DHT22;50545;56.064;26.178;2022-11-15T09:18:16;3.50;99.90
64226;DHT22;50545;56.064;26.178;2022-11-15T09:20:43;3.50;99.90
64226;DHT22;50545;56.064;26.178;2022-11-15T09:23:11;3.50;99.90
64226;DHT22;50545;56.064;26.178;2022-11-15T09:25:38;3.60;99.90
64226;DHT22;50545;56.064;26.178;2022-11-15T09:28:06;3.60;99.90
64226;DHT22;50545;56.064;26.178;2022-11-15T09:30:34;3.60;99.90
64226;DHT22;50545;56.064;26.178;2022-11-15T09:33:11;3.60;99.90
64226;DHT22;50545;56.064;26.178;2022-11-15T09:35:39;3.70;99.90
64226;DHT22;50545;56.064;26.178;2022-11-15T09:38:08;3.70;99.90
64226;DHT22;50545;56.064;26.178;2022-11-15T09:40:37;3.70;99.90
64226;DHT22;50545;56.064;26.178;2022-11-15T09:45:52;3.70;99.90
64226;DHT22;50545;56.064;26.178;2022-11-15T09:50:52;3.80;99.90
64226;DHT22;50545;56.064;26.178;2022-11-15T09:57:31;3.80;99.90
64226;DHT22;50545;56.064;26.178;2022-11-15T10:05:42;3.90;99.90
64226;DHT22;50545;56.064;26.178;2022-11-15T10:10:46;3.80;99.90
64226;DHT22;50545;56.064;26.178;2022-11-15T10:13:31;3.80;99.90
64226;DHT22;50545;56.064;26.178;2022-11-15T10:21:25;3.90;99.90
64226;DHT22;50545;56.064;26.178;2022-11-15T10:23:56;3.90;99.90
64226;DHT22;50545;56.064;26.178;2022-11-15T10:26:23;3.90;99.90
64226;DHT22;50545;56.064;26.178;2022-11-15T10:28:51;3.90;99.90
64226;DHT22;50545;56.064;26.178;2022-11-15T10:31:27;3.90;99.90
64226;DHT22;50545;56.064;26.178;2022-11-15T10:34:21;4.00;99.90
64226;DHT22;50545;56.064;26.178;2022-11-15T10:37:01;3.90;99.90
64226;DHT22;50545;56.064;26.178;2022-11-15T10:39:31;4.00;99.90
64226;DHT22;50545;56.064;26.178;2022-11-15T10:44:44;4.00;99.90
64226;DHT22;50545;56.064;26.178;2022-11-15T10:47:25;4.00;99.90
64226;DHT22;50545;56.064;26.178;2022-11-15T10:49:58;4.10;99.90
64226;DHT22;50545;56.064;26.178;2022-11-15T10:52:27;4.10;99.90
64226;DHT22;50545;56.064;26.178;2022-11-15T10:54:56;4.10;99.90
64226;DHT22;50545;56.064;26.178;2022-11-15T10:57:31;4.10;99.90
64226;DHT22;50545;56.064;26.178;2022-11-15T11:03:29;4.20;99.90
64226;DHT22;50545;56.064;26.178;2022-11-15T11:06:17;4.20;99.90
64226;DHT22;50545;56.064;26.178;2022-11-15T11:09:05;4.20;99.90
64226;DHT22;50545;56.064;26.178;2022-11-15T11:11:49;4.30;99.90
64226;DHT22;50545;56.064;26.178;2022-11-15T11:14:34;4.30;99.90
64226;DHT22;50545;56.064;26.178;2022-11-15T11:17:23;4.40;99.90
64226;DHT22;50545;56.064;26.178;2022-11-15T11:23:36;4.40;99.90
64226;DHT22;50545;56.064;26.178;2022-11-15T11:26:15;4.40;99.90
64226;DHT22;50545;56.064;26.178;2022-11-15T11:28:48;4.50;99.90
64226;DHT22;50545;56.064;26.178;2022-11-15T11:34:20;4.50;99.90
64226;DHT22;50545;56.064;26.178;2022-11-15T11:40:02;4.50;99.90
64226;DHT22;50545;56.064;26.178;2022-11-15T11:45:54;4.50;99.90
64226;DHT22;50545;56.064;26.178;2022-11-15T11:51:20;4.60;99.90
64226;DHT22;50545;56.064;26.178;2022-11-15T11:56:45;4.60;99.90
64226;DHT22;50545;56.064;26.178;2022-11-15T12:01:44;4.60;99.90
64226;DHT22;50545;56.064;26.178;2022-11-15T12:04:30;4.70;99.90
64226;DHT22;50545;56.064;26.178;2022-11-15T12:07:20;4.70;99.90
64226;DHT22;50545;56.064;26.178;2022-11-15T12:09:53;4.70;99.90
64226;DHT22;50545;56.064;26.178;2022-11-15T12:16:02;4.70;99.90
64226;DHT22;50545;56.064;26.178;2022-11-15T12:18:10;4.80;99.90
64226;DHT22;50545;56.064;26.178;2022-11-15T12:20:47;4.80;99.90
64226;DHT22;50545;56.064;26.178;2022-11-15T12:23:25;4.80;99.90
64226;DHT22;50545;56.064;26.178;2022-11-15T12:26:08;4.80;99.90
64226;DHT22;50545;56.064;26.178;2022-11-15T12:28:58;4.80;99.90
64226;DHT22;50545;56.064;26.178;2022-11-15T12:36:50;4.80;99.90
64226;DHT22;50545;56.064;26.178;2022-11-15T12:39:18;4.80;99.90
64226;DHT22;50545;56.064;26.178;2022-11-15T12:47:26;4.90;99.90
64226;DHT22;50545;56.064;26.178;2022-11-15T12:49:53;4.90;99.90
64226;DHT22;50545;56.064;26.178;2022-11-15T12:52:21;4.90;99.90
64226;DHT22;50545;56.064;26.178;2022-11-15T12:54:56;4.90;99.90
64226;DHT22;50545;56.064;26.178;2022-11-15T12:57:30;4.90;99.90
64226;DHT22;50545;56.064;26.178;2022-11-15T13:17:43;5.10;99.90
64226;DHT22;50545;56.064;26.178;2022-11-15T13:22:43;5.10;99.90
64226;DHT22;50545;56.064;26.178;2022-11-15T13:30:54;5.10;99.90
64226;DHT22;50545;56.064;26.178;2022-11-15T13:33:32;5.10;99.90
64226;DHT22;50545;56.064;26.178;2022-11-15T13:38:34;5.20;99.90
64226;DHT22;50545;56.064;26.178;2022-11-15T13:43:43;5.20;99.90
64226;DHT22;50545;56.064;26.178;2022-11-15T13:46:21;5.20;99.90
64226;DHT22;50545;56.064;26.178;2022-11-15T13:49:00;5.20;99.90
64226;DHT22;50545;56.064;26.178;2022-11-15T13:51:47;5.20;99.90
64226;DHT22;50545;56.064;26.178;2022-11-15T13:59:35;5.20;99.90
64226;DHT22;50545;56.064;26.178;2022-11-15T14:02:13;5.30;99.90
64226;DHT22;50545;56.064;26.178;2022-11-15T14:05:20;5.30;99.90
64226;DHT22;50545;56.064;26.178;2022-11-15T14:07:59;5.30;99.90
64226;DHT22;50545;56.064;26.178;2022-11-15T14:10:30;5.30;99.90
64226;DHT22;50545;56.064;26.178;2022-11-15T14:12:58;5.30;99.90
64226;DHT22;50545;56.064;26.178;2022-11-15T14:15:30;5.30;99.90
64226;DHT22;50545;56.064;26.178;2022-11-15T14:17:57;5.30;99.90
64226;DHT22;50545;56.064;26.178;2022-11-15T14:22:57;5.30;99.90
64226;DHT22;50545;56.064;26.178;2022-11-15T14:25:32;5.30;99.90
64226;DHT22;50545;56.064;26.178;2022-11-15T14:30:43;5.30;99.90
64226;DHT22;50545;56.064;26.178;2022-11-15T14:36:18;5.30;99.90
64226;DHT22;50545;56.064;26.178;2022-11-15T14:38:46;5.30;99.90
64226;DHT22;50545;56.064;26.178;2022-11-15T14:41:24;5.30;99.90
64226;DHT22;50545;56.064;26.178;2022-11-15T14:43:53;5.30;99.90
64226;DHT22;50545;56.064;26.178;2022-11-15T14:46:20;5.30;99.90
64226;DHT22;50545;56.064;26.178;2022-11-15T14:48:48;5.30;99.90
64226;DHT22;50545;56.064;26.178;2022-11-15T14:51:18;5.30;99.90
64226;DHT22;50545;56.064;26.178;2022-11-15T14:53:46;5.30;99.90
64226;DHT22;50545;56.064;26.178;2022-11-15T14:56:13;5.30;99.90
64226;DHT22;50545;56.064;26.178;2022-11-15T14:58:41;5.30;99.90
64226;DHT22;50545;56.064;26.178;2022-11-15T15:01:25;5.30;99.90
64226;DHT22;50545;56.064;26.178;2022-11-15T15:03:53;5.20;99.90
64226;DHT22;50545;56.064;26.178;2022-11-15T15:06:24;5.20;99.90
64226;DHT22;50545;56.064;26.178;2022-11-15T15:08:51;5.30;99.90
64226;DHT22;50545;56.064;26.178;2022-11-15T15:11:29;5.30;99.90
64226;DHT22;50545;56.064;26.178;2022-11-15T15:13:57;5.30;99.90
64226;DHT22;50545;56.064;26.178;2022-11-15T15:16:27;5.30;99.90
64226;DHT22;50545;56.064;26.178;2022-11-15T15:18:54;5.20;99.90
64226;DHT22;50545;56.064;26.178;2022-11-15T15:21:24;5.20;99.90
64226;DHT22;50545;56.064;26.178;2022-11-15T15:23:55;5.20;99.90
64226;DHT22;50545;56.064;26.178;2022-11-15T15:26:25;5.20;99.90
64226;DHT22;50545;56.064;26.178;2022-11-15T15:28:52;5.20;99.90
64226;DHT22;50545;56.064;26.178;2022-11-15T15:31:20;5.20;99.90
64226;DHT22;50545;56.064;26.178;2022-11-15T15:33:47;5.20;99.90
64226;DHT22;50545;56.064;26.178;2022-11-15T15:36:17;5.20;99.90
64226;DHT22;50545;56.064;26.178;2022-11-15T15:38:44;5.20;99.90
64226;DHT22;50545;56.064;26.178;2022-11-15T15:41:15;5.20;99.90
64226;DHT22;50545;56.064;26.178;2022-11-15T15:43:42;5.20;99.90
64226;DHT22;50545;56.064;26.178;2022-11-15T15:46:18;5.20;99.90
64226;DHT22;50545;56.064;26.178;2022-11-15T15:48:46;5.20;99.90
64226;DHT22;50545;56.064;26.178;2022-11-15T15:51:13;5.10;99.90
64226;DHT22;50545;56.064;26.178;2022-11-15T15:53:47;5.10;99.90
64226;DHT22;50545;56.064;26.178;2022-11-15T15:56:14;5.10;99.90
64226;DHT22;50545;56.064;26.178;2022-11-15T15:58:41;5.10;99.90
64226;DHT22;50545;56.064;26.178;2022-11-15T16:01:08;5.00;99.90
64226;DHT22;50545;56.064;26.178;2022-11-15T16:03:36;5.00;99.90
64226;DHT22;50545;56.064;26.178;2022-11-15T16:06:03;4.90;99.90
64226;DHT22;50545;56.064;26.178;2022-11-15T16:08:31;4.90;99.90
64226;DHT22;50545;56.064;26.178;2022-11-15T16:11:19;4.90;99.90
64226;DHT22;50545;56.064;26.178;2022-11-15T16:13:46;4.90;99.90
64226;DHT22;50545;56.064;26.178;2022-11-15T16:16:13;4.90;99.90
64226;DHT22;50545;56.064;26.178;2022-11-15T16:18:40;4.90;99.90
64226;DHT22;50545;56.064;26.178;2022-11-15T16:21:08;4.90;99.90
64226;DHT22;50545;56.064;26.178;2022-11-15T16:23:35;4.90;99.90
64226;DHT22;50545;56.064;26.178;2022-11-15T16:28:49;4.90;99.90
64226;DHT22;50545;56.064;26.178;2022-11-15T16:31:17;4.90;99.90
64226;DHT22;50545;56.064;26.178;2022-11-15T16:33:45;4.90;99.90
64226;DHT22;50545;56.064;26.178;2022-11-15T16:36:26;5.00;99.90
64226;DHT22;50545;56.064;26.178;2022-11-15T16:38:57;4.90;99.90
64226;DHT22;50545;56.064;26.178;2022-11-15T16:41:24;4.90;99.90
64226;DHT22;50545;56.064;26.178;2022-11-15T16:43:52;4.90;99.90
64226;DHT22;50545;56.064;26.178;2022-11-15T16:46:21;4.90;99.90
64226;DHT22;50545;56.064;26.178;2022-11-15T16:48:49;4.90;99.90
64226;DHT22;50545;56.064;26.178;2022-11-15T16:51:17;5.00;99.90
64226;DHT22;50545;56.064;26.178;2022-11-15T16:53:44;5.00;99.90
64226;DHT22;50545;56.064;26.178;2022-11-15T16:56:30;5.00;99.90
64226;DHT22;50545;56.064;26.178;2022-11-15T16:58:58;5.00;99.90
64226;DHT22;50545;56.064;26.178;2022-11-15T17:01:31;5.10;99.90
64226;DHT22;50545;56.064;26.178;2022-11-15T17:03:59;5.10;99.90
64226;DHT22;50545;56.064;26.178;2022-11-15T17:06:40;5.10;99.90
64226;DHT22;50545;56.064;26.178;2022-11-15T17:09:21;5.10;99.90
64226;DHT22;50545;56.064;26.178;2022-11-15T17:11:52;5.10;99.90
64226;DHT22;50545;56.064;26.178;2022-11-15T17:14:19;5.10;99.90
64226;DHT22;50545;56.064;26.178;2022-11-15T17:16:46;5.20;99.90
64226;DHT22;50545;56.064;26.178;2022-11-15T17:19:16;5.10;99.90
64226;DHT22;50545;56.064;26.178;2022-11-15T17:21:43;5.10;99.90
64226;DHT22;50545;56.064;26.178;2022-11-15T17:24:11;5.10;99.90
64226;DHT22;50545;56.064;26.178;2022-11-15T17:26:39;5.10;99.90
64226;DHT22;50545;56.064;26.178;2022-11-15T17:29:07;5.10;99.90
64226;DHT22;50545;56.064;26.178;2022-11-15T17:31:35;5.10;99.90
64226;DHT22;50545;56.064;26.178;2022-11-15T17:34:04;5.10;99.90
64226;DHT22;50545;56.064;26.178;2022-11-15T17:36:32;5.10;99.90
64226;DHT22;50545;56.064;26.178;2022-11-15T17:39:00;5.00;99.90
64226;DHT22;50545;56.064;26.178;2022-11-15T17:41:28;5.00;99.90
64226;DHT22;50545;56.064;26.178;2022-11-15T17:43:58;5.00;99.90
64226;DHT22;50545;56.064;26.178;2022-11-15T17:46:27;5.00;99.90
64226;DHT22;50545;56.064;26.178;2022-11-15T17:48:55;5.00;99.90
64226;DHT22;50545;56.064;26.178;2022-11-15T17:51:23;5.00;99.90
64226;DHT22;50545;56.064;26.178;2022-11-15T17:53:51;5.00;99.90
64226;DHT22;50545;56.064;26.178;2022-11-15T17:56:22;5.00;99.90
64226;DHT22;50545;56.064;26.178;2022-11-15T17:58:54;5.00;99.90
64226;DHT22;50545;56.064;26.178;2022-11-15T18:01:24;4.90;99.90
64226;DHT22;50545;56.064;26.178;2022-11-15T18:03:52;4.90;99.90
64226;DHT22;50545;56.064;26.178;2022-11-15T18:06:22;5.00;99.90
64226;DHT22;50545;56.064;26.178;2022-11-15T18:08:51;4.90;99.90